Uriah, AL (36480)

7:51 PM CST on January 31, 2015 (GMT -0600)
Barlow Bend | Change Station
CLOSE
Current Station
Personal Weather Station
Location: Gainestown, AL
Elevation: 72 ft
Nearby Weather Stations

Elev 72 ft 31.46 °N, 87.58 °W | Updated 11 seconds ago

Partly Cloudy
Partly Cloudy
48.2 °F
Feels Like 48 °F
N
0.0
Wind Variable Wind from WSW
Gusts 0.0 mph

Today
High -- | Low -- °F
--% Chance of Precip.
Yesterday
High -- | Low -- °F
Precip. -- in
6:43 AM 5:24 PM
Waxing Gibbous, 92% visible
Pressure 30.25 in
Visibility 10.0 miles
Clouds Clear
Windchill 48 °F
Dew Point 37 °F
Humidity 65%
Rainfall 0.00 in
Snow Depth Not available.
UV 0.0 out of 12
Pollen 6.30 out of 12
Air Quality Not available.
Flu Activity Not available.
METAR KGZH 010053Z AUTO 00000KT 10SM CLR 09/02 A3024 RMK AO2 SLP241 T00890022

More Conditions Fewer Conditions

Pressure 30.25 in
Visibility 10.0 miles
Clouds Clear
Windchill 48 °F
Dew Point 37 °F
Humidity 65%
Rainfall 0.00 in
Snow Depth Not available.
UV 0.0 out of 12
Pollen 6.30 out of 12
Air Quality Not available.
Flu Activity Not available.
METAR KGZH 010053Z AUTO 00000KT 10SM CLR 09/02 A3024 RMK AO2 SLP241 T00890022

More Conditions Fewer Conditions

10-Day Weather Forecast

Almanac

Astronomy

Jan. 31, 2015 Rise Set
Actual Time
Civil Twilight
Nautical Twilight
Astronomical Twilight
Moon
Length of Visible Light
Length of Day
Tomorrow will be .
, % of the Moon is Illuminated

Today's Extremes

State Highs State Lows

Community

WunderPhotos

Upload Photos

1,792,280 photos uploaded!

WunderBlogs® & News

Nearby

Air Quality

  Air Quality AQ Index Pollutant
Not available.

Snow Depth

Station Depth Elevation

Earthquake Activity

City Distance Mag. Time & Date
Minimum magnitude displayed is 2.5.

Coastal Water Temperatures

Place Temperature

Nearby Weather Stations